Time;durP1;ratioP1;P1;durP2;ratioP2;P2;SDS_P1;SDS_P2;PMS_P1;PMS_P2;Temp;Humidity;BMP_temperature;BMP_pressure;BME280_temperature;BME280_humidity;BME280_pressure;Samples;Min_cycle;Max_cycle;Signal;HPM_P1;HPM_P2
2024/05/07 00:00:27;;;;;;;22.17;14.57;;;;;;;;;;5493852;26;19997;-82
2024/05/07 00:02:58;;;;;;;25.67;15.80;;;;;;;;;;5494796;27;20448;-81
2024/05/07 00:05:30;;;;;;;25.02;15.07;;;;;;;;;;5494314;27;20006;-83
2024/05/07 00:08:00;;;;;;;;;;;;;;;;;;5469956;27;20030;-82
2024/05/07 00:10:30;;;;;;;25.90;16.40;;;;;;;;;;5494635;27;19926;-82
2024/05/07 00:13:03;;;;;;;29.77;17.25;;;;;;;;;;5494080;27;20009;-83
2024/05/07 00:15:34;;;;;;;31.05;17.63;;;;;;;;;;5494042;27;20001;-82
2024/05/07 00:18:04;;;;;;;26.95;16.73;;;;;;;;;;5494248;26;20071;-83
2024/05/07 00:20:34;;;;;;;28.52;15.82;;;;;;;;;;5492802;27;20009;-81
2024/05/07 00:23:05;;;;;;;27.63;16.17;;;;;;;;;;5494861;27;20006;-82
2024/05/07 00:25:39;;;;;;;26.38;16.25;;;;;;;;;;5494790;26;19994;-83
2024/05/07 00:28:09;;;;;;;23.50;14.73;;;;;;;;;;5494848;26;20016;-82
2024/05/07 00:30:40;;;;;;;23.75;14.68;;;;;;;;;;5478996;27;20013;-83
2024/05/07 00:33:10;;;;;;;29.02;15.70;;;;;;;;;;5494864;27;20005;-83
2024/05/07 00:35:41;;;;;;;27.40;15.93;;;;;;;;;;5476636;27;20001;-83
2024/05/07 00:38:12;;;;;;;24.00;15.40;;;;;;;;;;5495460;26;20002;-83
2024/05/07 00:40:44;;;;;;;28.10;15.90;;;;;;;;;;5495089;26;20005;-82
2024/05/07 00:43:15;;;;;;;22.00;14.23;;;;;;;;;;5494303;27;20049;-83
2024/05/07 00:45:45;;;;;;;21.20;13.13;;;;;;;;;;5478831;27;20072;-83
2024/05/07 00:48:16;;;;;;;24.00;13.52;;;;;;;;;;5481204;26;20024;-83
2024/05/07 00:50:46;;;;;;;25.83;14.10;;;;;;;;;;5494767;27;20049;-84
2024/05/07 00:53:17;;;;;;;24.92;14.52;;;;;;;;;;5478011;27;20002;-83
2024/05/07 00:55:48;;;;;;;27.13;13.32;;;;;;;;;;5495399;26;20411;-83
2024/05/07 00:58:19;;;;;;;22.48;15.02;;;;;;;;;;5494596;26;20016;-84
2024/05/07 01:00:50;;;;;;;26.55;14.88;;;;;;;;;;5494760;26;20016;-82
2024/05/07 01:03:20;;;;;;;30.88;14.30;;;;;;;;;;5494469;27;20010;-83
2024/05/07 01:05:50;;;;;;;20.85;13.70;;;;;;;;;;5494927;27;20001;-82
2024/05/07 01:08:20;;;;;;;24.10;15.00;;;;;;;;;;5494714;26;19998;-83
2024/05/07 01:10:51;;;;;;;22.55;14.55;;;;;;;;;;5495193;26;20006;-84
2024/05/07 01:13:25;;;;;;;22.42;14.25;;;;;;;;;;5466728;27;20001;-84
2024/05/07 01:15:55;;;;;;;23.27;15.32;;;;;;;;;;5493970;27;20005;-83
2024/05/07 01:18:25;;;;;;;20.40;13.15;;;;;;;;;;5494345;26;20410;-84
2024/05/07 01:20:55;;;;;;;27.80;15.75;;;;;;;;;;5493735;27;20375;-83
2024/05/07 01:23:26;;;;;;;22.45;14.30;;;;;;;;;;5506215;26;20013;-84
2024/05/07 01:25:56;;;;;;;25.25;15.50;;;;;;;;;;5477900;27;20002;-83
2024/05/07 01:28:27;;;;;;;24.98;15.18;;;;;;;;;;5493968;26;20013;-82
2024/05/07 01:30:57;;;;;;;22.98;15.07;;;;;;;;;;5476890;27;20448;-82
2024/05/07 01:33:27;;;;;;;30.15;15.38;;;;;;;;;;5494082;27;20083;-83
2024/05/07 01:35:58;;;;;;;23.73;15.32;;;;;;;;;;5493916;27;20068;-82
2024/05/07 01:38:28;;;;;;;33.90;21.05;;;;;;;;;;5475488;27;20016;-81
2024/05/07 01:40:58;;;;;;;39.25;23.40;;;;;;;;;;5493354;26;20012;-82
2024/05/07 01:43:28;;;;;;;38.60;23.95;;;;;;;;;;5493307;26;20006;-82
2024/05/07 01:45:59;;;;;;;41.47;24.85;;;;;;;;;;5493649;26;20313;-82
2024/05/07 01:48:29;;;;;;;43.28;25.10;;;;;;;;;;5493262;26;20012;-82
2024/05/07 01:50:59;;;;;;;43.22;26.27;;;;;;;;;;5493659;27;19994;-80
2024/05/07 01:53:29;;;;;;;40.22;24.95;;;;;;;;;;5493331;27;19998;-82
2024/05/07 01:56:00;;;;;;;50.15;28.70;;;;;;;;;;5493107;26;20017;-80
2024/05/07 01:58:30;;;;;;;43.88;27.10;;;;;;;;;;5477295;27;20510;-80
2024/05/07 02:01:00;;;;;;;41.20;26.02;;;;;;;;;;5496144;27;20005;-80
2024/05/07 02:03:30;;;;;;;42.78;28.08;;;;;;;;;;5496189;27;19997;-81
2024/05/07 02:06:00;;;;;;;42.97;28.42;;;;;;;;;;5496448;26;19993;-80
2024/05/07 02:08:31;;;;;;;41.70;28.45;;;;;;;;;;5496845;26;19998;-79
2024/05/07 02:11:01;;;;;;;46.08;28.75;;;;;;;;;;5496175;26;20077;-79
2024/05/07 02:13:34;;;;;;;50.92;32.20;;;;;;;;;;5496029;26;19998;-78
2024/05/07 02:16:04;;;;;;;47.00;31.33;;;;;;;;;;5496849;26;20020;-80
2024/05/07 02:18:35;;;;;;;49.25;31.27;;;;;;;;;;5496323;26;20005;-78
2024/05/07 02:21:08;;;;;;;45.47;31.60;;;;;;;;;;5496024;26;20002;-79
2024/05/07 02:23:38;;;;;;;47.05;31.35;;;;;;;;;;5495898;27;20075;-79
2024/05/07 02:26:08;;;;;;;54.28;34.10;;;;;;;;;;5480198;27;20017;-79
2024/05/07 02:28:39;;;;;;;50.25;33.42;;;;;;;;;;5495992;26;20009;-79
2024/05/07 02:31:10;;;;;;;49.90;31.10;;;;;;;;;;5495853;27;20017;-78
2024/05/07 02:33:40;;;;;;;54.75;34.05;;;;;;;;;;5496032;26;20013;-79
2024/05/07 02:36:10;;;;;;;64.82;35.83;;;;;;;;;;5496109;27;20013;-79
2024/05/07 02:38:40;;;;;;;56.80;34.17;;;;;;;;;;5495846;26;20006;-80
2024/05/07 02:41:10;;;;;;;53.88;33.83;;;;;;;;;;5496371;27;20008;-79
2024/05/07 02:43:41;;;;;;;55.38;35.25;;;;;;;;;;5496108;27;20001;-80
2024/05/07 02:46:11;;;;;;;58.15;34.95;;;;;;;;;;5495772;26;19998;-80
2024/05/07 02:48:41;;;;;;;61.45;35.67;;;;;;;;;;5495753;26;20005;-79
2024/05/07 02:51:11;;;;;;;54.80;33.97;;;;;;;;;;5496101;27;19990;-79
2024/05/07 02:53:42;;;;;;;54.83;33.28;;;;;;;;;;5495435;26;20312;-79
2024/05/07 02:56:12;;;;;;;53.38;33.28;;;;;;;;;;5495630;27;20075;-79
2024/05/07 02:58:43;;;;;;;57.17;33.80;;;;;;;;;;5495477;26;20391;-79
2024/05/07 03:01:20;;;;;;;53.55;34.70;;;;;;;;;;5495615;27;19998;-80
2024/05/07 03:03:50;;;;;;;54.35;34.28;;;;;;;;;;5495490;26;20012;-81
2024/05/07 03:06:20;;;;;;;57.17;34.22;;;;;;;;;;5495401;26;20468;-79
2024/05/07 03:08:50;;;;;;;57.53;34.88;;;;;;;;;;5495632;26;20004;-81
2024/05/07 03:11:20;;;;;;;49.38;32.67;;;;;;;;;;5494412;27;20079;-80
2024/05/07 03:13:51;;;;;;;50.22;31.95;;;;;;;;;;5495194;26;19994;-80
2024/05/07 03:16:21;;;;;;;59.10;34.72;;;;;;;;;;5478746;27;20002;-79
2024/05/07 03:18:51;;;;;;;53.28;33.38;;;;;;;;;;5495247;26;20005;-79
2024/05/07 03:21:21;;;;;;;61.40;36.28;;;;;;;;;;5495508;27;19994;-80
2024/05/07 03:23:52;;;;;;;57.65;34.78;;;;;;;;;;5494601;27;20001;-79
2024/05/07 03:26:22;;;;;;;60.28;33.83;;;;;;;;;;5495240;26;20005;-80
2024/05/07 03:28:52;;;;;;;61.05;35.25;;;;;;;;;;5495842;26;20069;-79
2024/05/07 03:31:22;;;;;;;53.28;33.00;;;;;;;;;;5495192;26;20337;-79
2024/05/07 03:33:52;;;;;;;51.15;32.38;;;;;;;;;;5495296;27;20319;-79
2024/05/07 03:36:23;;;;;;;63.47;36.53;;;;;;;;;;5494866;27;19997;-79
2024/05/07 03:38:53;;;;;;;57.63;34.60;;;;;;;;;;5495351;26;20332;-79
2024/05/07 03:41:23;;;;;;;58.10;33.05;;;;;;;;;;5495072;26;20013;-79
2024/05/07 03:43:54;;;;;;;48.08;29.35;;;;;;;;;;5494840;26;19997;-79
2024/05/07 03:46:24;;;;;;;52.72;33.80;;;;;;;;;;5494792;27;20071;-78
2024/05/07 03:48:54;;;;;;;54.28;33.70;;;;;;;;;;5494763;26;19993;-78
2024/05/07 03:51:24;;;;;;;57.88;34.83;;;;;;;;;;5494774;27;20016;-78
2024/05/07 03:53:54;;;;;;;60.65;35.97;;;;;;;;;;5494359;27;19998;-78
2024/05/07 03:56:25;;;;;;;60.83;35.72;;;;;;;;;;5495131;26;19994;-80
2024/05/07 03:58:55;;;;;;;61.45;36.10;;;;;;;;;;5494614;26;19997;-78
2024/05/07 04:01:25;;;;;;;56.88;35.17;;;;;;;;;;5494145;26;20085;-78
2024/05/07 04:03:55;;;;;;;66.80;37.80;;;;;;;;;;5494705;27;20012;-79
2024/05/07 04:06:25;;;;;;;64.72;38.70;;;;;;;;;;5494214;27;20013;-79
2024/05/07 04:08:56;;;;;;;66.47;36.10;;;;;;;;;;5494718;26;20011;-79
2024/05/07 04:11:26;;;;;;;67.03;38.42;;;;;;;;;;5535730;22;20315;-81
2024/05/07 04:13:56;;;;;;;71.75;36.60;;;;;;;;;;5515462;26;20009;-82
2024/05/07 04:16:26;;;;;;;73.60;38.88;;;;;;;;;;5532649;26;19993;-83
2024/05/07 04:18:57;;;;;;;74.55;39.65;;;;;;;;;;5484966;27;20016;-83
2024/05/07 04:21:27;;;;;;;72.38;38.75;;;;;;;;;;5496103;27;20009;-82
2024/05/07 04:23:57;;;;;;;79.43;41.80;;;;;;;;;;5495843;27;20013;-80
2024/05/07 04:26:27;;;;;;;73.13;39.28;;;;;;;;;;5496208;27;20009;-80
2024/05/07 04:28:58;;;;;;;59.45;34.35;;;;;;;;;;5495905;26;20005;-79
2024/05/07 04:31:28;;;;;;;62.53;36.83;;;;;;;;;;5495858;26;20317;-80
2024/05/07 04:33:58;;;;;;;64.53;36.55;;;;;;;;;;5496990;27;20068;-81
2024/05/07 04:36:28;;;;;;;63.58;35.63;;;;;;;;;;5480953;27;20015;-82
2024/05/07 04:38:59;;;;;;;66.82;35.85;;;;;;;;;;5496123;26;20009;-82
2024/05/07 04:41:29;;;;;;;61.13;34.58;;;;;;;;;;5496180;26;19998;-82
2024/05/07 04:43:59;;;;;;;57.05;33.50;;;;;;;;;;5496040;26;20001;-82
2024/05/07 04:46:29;;;;;;;69.63;36.28;;;;;;;;;;5496618;26;20036;-84
2024/05/07 04:48:59;;;;;;;76.60;39.28;;;;;;;;;;5496757;26;20010;-83
2024/05/07 04:51:30;;;;;;;75.22;39.10;;;;;;;;;;5485897;27;20006;-82
2024/05/07 04:54:00;;;;;;;61.65;35.40;;;;;;;;;;5495489;26;19993;-82
2024/05/07 04:56:30;;;;;;;65.60;36.72;;;;;;;;;;5496583;26;19998;-82
2024/05/07 04:59:00;;;;;;;67.25;37.15;;;;;;;;;;5497239;26;19993;-83
2024/05/07 05:01:31;;;;;;;70.15;39.50;;;;;;;;;;5496315;26;19998;-82
2024/05/07 05:04:01;;;;;;;60.67;35.30;;;;;;;;;;5496154;26;19997;-82
2024/05/07 05:06:31;;;;;;;58.50;34.45;;;;;;;;;;5508991;26;20006;-84
2024/05/07 05:09:02;;;;;;;58.85;35.85;;;;;;;;;;5496391;26;20001;-84
2024/05/07 05:11:32;;;;;;;50.50;31.17;;;;;;;;;;5480156;27;20020;-83
2024/05/07 05:14:02;;;;;;;66.57;38.28;;;;;;;;;;5495336;27;20427;-84
2024/05/07 05:16:33;;;;;;;56.58;35.55;;;;;;;;;;5496535;27;19998;-84
2024/05/07 05:19:03;;;;;;;55.97;35.50;;;;;;;;;;5496268;26;20435;-83
2024/05/07 05:21:33;;;;;;;65.53;37.28;;;;;;;;;;5479358;27;20008;-83
2024/05/07 05:24:04;;;;;;;62.80;37.67;;;;;;;;;;5479027;27;20010;-83
2024/05/07 05:26:35;;;;;;;66.85;40.05;;;;;;;;;;5495389;26;20448;-82
2024/05/07 05:29:05;;;;;;;63.60;37.78;;;;;;;;;;5494959;26;20014;-82
2024/05/07 05:31:35;;;;;;;68.65;38.65;;;;;;;;;;5494175;26;20010;-82
2024/05/07 05:34:06;;;;;;;73.43;40.47;;;;;;;;;;5494605;27;20004;-82
2024/05/07 05:36:42;;;;;;;55.42;35.80;;;;;;;;;;5498943;26;20001;-82
2024/05/07 05:39:12;;;;;;;54.90;33.55;;;;;;;;;;5498442;26;20021;-82
2024/05/07 05:41:42;;;;;;;73.20;40.70;;;;;;;;;;5482245;27;20057;-82
2024/05/07 05:44:13;;;;;;;59.45;37.03;;;;;;;;;;5498709;27;20006;-82
2024/05/07 05:46:43;;;;;;;60.70;37.10;;;;;;;;;;5497766;27;20076;-82
2024/05/07 05:49:13;;;;;;;74.18;39.47;;;;;;;;;;5497912;26;19998;-82
2024/05/07 05:51:43;;;;;;;59.38;38.42;;;;;;;;;;5498640;26;20009;-83
2024/05/07 05:54:14;;;;;;;65.57;39.30;;;;;;;;;;5498045;27;20001;-82
2024/05/07 05:56:44;;;;;;;67.78;40.70;;;;;;;;;;5497892;26;20005;-81
2024/05/07 05:59:15;;;;;;;71.28;37.92;;;;;;;;;;5497256;26;20004;-82
2024/05/07 06:01:45;;;;;;;67.55;38.55;;;;;;;;;;5498329;26;20356;-82
2024/05/07 06:04:15;;;;;;;72.00;40.22;;;;;;;;;;5496055;27;20008;-82
2024/05/07 06:06:46;;;;;;;67.50;41.25;;;;;;;;;;5498448;26;20008;-82
2024/05/07 06:09:16;;;;;;;72.03;41.65;;;;;;;;;;5498120;27;20004;-82
2024/05/07 06:11:46;;;;;;;72.55;40.17;;;;;;;;;;5497988;26;19990;-83
2024/05/07 06:14:16;;;;;;;68.32;39.92;;;;;;;;;;5498019;27;20008;-83
2024/05/07 06:16:46;;;;;;;52.85;34.58;;;;;;;;;;5497796;26;20060;-82
2024/05/07 06:19:17;;;;;;;73.28;40.67;;;;;;;;;;5498449;26;19997;-83
2024/05/07 06:21:47;;;;;;;69.75;40.70;;;;;;;;;;5498388;27;20040;-83
2024/05/07 06:24:17;;;;;;;69.35;38.30;;;;;;;;;;5497892;26;19997;-83
2024/05/07 06:26:47;;;;;;;59.78;37.63;;;;;;;;;;5498254;26;20001;-83
2024/05/07 06:29:17;;;;;;;60.42;37.30;;;;;;;;;;5497764;27;20044;-83
2024/05/07 06:31:48;;;;;;;67.38;39.60;;;;;;;;;;5497077;27;20015;-82
2024/05/07 06:34:18;;;;;;;66.78;39.75;;;;;;;;;;5496860;26;20005;-82
2024/05/07 06:36:48;;;;;;;68.68;41.35;;;;;;;;;;5497378;26;20455;-83
2024/05/07 06:39:18;;;;;;;71.28;41.35;;;;;;;;;;5498033;26;20010;-83
2024/05/07 06:41:49;;;;;;;74.60;42.72;;;;;;;;;;5497181;26;19990;-83
2024/05/07 06:44:19;;;;;;;72.77;43.43;;;;;;;;;;5496106;26;20336;-83
2024/05/07 06:46:49;;;;;;;59.77;38.17;;;;;;;;;;5496238;26;20004;-83
2024/05/07 06:49:20;;;;;;;60.28;39.15;;;;;;;;;;5497801;26;20008;-83
2024/05/07 06:51:50;;;;;;;58.28;38.35;;;;;;;;;;5496968;27;20714;-83
2024/05/07 06:54:20;;;;;;;56.50;38.83;;;;;;;;;;5497399;26;20005;-83
2024/05/07 06:56:50;;;;;;;65.37;40.67;;;;;;;;;;5497956;26;20004;-82
2024/05/07 06:59:20;;;;;;;54.38;38.10;;;;;;;;;;5497369;26;20008;-82
2024/05/07 07:01:51;;;;;;;48.63;35.60;;;;;;;;;;5470646;27;20001;-82
2024/05/07 07:04:21;;;;;;;45.42;33.60;;;;;;;;;;5497671;26;19997;-82
2024/05/07 07:06:51;;;;;;;53.47;38.60;;;;;;;;;;5498033;26;20420;-82
2024/05/07 07:09:22;;;;;;;48.38;33.13;;;;;;;;;;5477280;27;20009;-81
2024/05/07 07:11:52;;;;;;;51.97;36.73;;;;;;;;;;5496960;27;20033;-82
2024/05/07 07:14:25;;;;;;;49.73;35.23;;;;;;;;;;5497677;27;20012;-81
2024/05/07 07:16:55;;;;;;;48.40;34.67;;;;;;;;;;5497036;26;20016;-81
2024/05/07 07:19:26;;;;;;;48.67;36.10;;;;;;;;;;5497025;26;19993;-81
2024/05/07 07:21:56;;;;;;;50.35;35.97;;;;;;;;;;5496927;26;20002;-81
2024/05/07 07:24:26;;;;;;;50.90;36.35;;;;;;;;;;5496726;27;20401;-81
2024/05/07 07:26:57;;;;;;;49.73;36.80;;;;;;;;;;5496294;26;19994;-81
2024/05/07 07:29:27;;;;;;;48.50;36.57;;;;;;;;;;5496477;26;20365;-81
2024/05/07 07:31:57;;;;;;;49.77;36.80;;;;;;;;;;5496887;26;19993;-81
2024/05/07 07:34:27;;;;;;;42.08;31.98;;;;;;;;;;5496183;27;19998;-80
2024/05/07 07:36:59;;;;;;;52.47;35.50;;;;;;;;;;5496436;26;19993;-81
2024/05/07 07:39:31;;;;;;;;;;;;;;;;;;5497169;26;20007;-80
2024/05/07 07:42:01;;;;;;;47.00;33.13;;;;;;;;;;5496302;26;20274;-80
2024/05/07 07:44:32;;;;;;;44.70;32.07;;;;;;;;;;5496241;26;20016;-81
2024/05/07 07:47:02;;;;;;;42.83;32.60;;;;;;;;;;5496245;26;20005;-80
2024/05/07 07:49:32;;;;;;;38.07;29.43;;;;;;;;;;5496333;26;19993;-80
2024/05/07 07:52:03;;;;;;;39.07;29.57;;;;;;;;;;5495756;26;20013;-81
2024/05/07 07:54:33;;;;;;;37.30;29.63;;;;;;;;;;5495548;27;20002;-80
2024/05/07 07:57:03;;;;;;;38.87;30.87;;;;;;;;;;5466749;26;20076;-81
2024/05/07 07:59:34;;;;;;;36.97;31.27;;;;;;;;;;5495863;26;20411;-81
2024/05/07 08:02:05;;;;;;;37.37;29.60;;;;;;;;;;5495624;27;20005;-80
2024/05/07 08:04:35;;;;;;;39.13;29.33;;;;;;;;;;5495952;27;19997;-82
2024/05/07 08:07:05;;;;;;;37.90;31.07;;;;;;;;;;5495694;26;19998;-81
2024/05/07 08:09:35;;;;;;;41.63;29.93;;;;;;;;;;5496133;27;20440;-82
2024/05/07 08:12:06;;;;;;;36.27;28.13;;;;;;;;;;5495715;27;20009;-83
2024/05/07 08:14:36;;;;;;;33.43;28.93;;;;;;;;;;5479198;27;20012;-82
2024/05/07 08:17:06;;;;;;;34.03;27.70;;;;;;;;;;5495856;26;20079;-82
2024/05/07 08:19:40;;;;;;;35.27;27.47;;;;;;;;;;5495714;26;20059;-81
2024/05/07 08:22:10;;;;;;;32.38;26.83;;;;;;;;;;5495504;27;20069;-82
2024/05/07 08:24:40;;;;;;;28.87;24.77;;;;;;;;;;5495276;27;19993;-81
2024/05/07 08:27:10;;;;;;;31.70;25.03;;;;;;;;;;5495652;26;20012;-83
2024/05/07 08:29:42;;;;;;;29.47;23.73;;;;;;;;;;5495638;26;19993;-83
2024/05/07 08:32:12;;;;;;;26.25;22.02;;;;;;;;;;5495584;26;20079;-83
2024/05/07 08:34:42;;;;;;;26.13;21.87;;;;;;;;;;5495419;27;20006;-81
2024/05/07 08:37:12;;;;;;;23.87;19.57;;;;;;;;;;5495322;26;20012;-82
2024/05/07 08:39:43;;;;;;;18.33;16.07;;;;;;;;;;5495703;26;19989;-82
2024/05/07 08:42:15;;;;;;;20.90;17.30;;;;;;;;;;5494885;26;20017;-83
2024/05/07 08:44:45;;;;;;;21.58;18.25;;;;;;;;;;5494032;27;20108;-82
2024/05/07 08:47:16;;;;;;;18.33;16.13;;;;;;;;;;5496395;26;19997;-82
2024/05/07 08:49:48;;;;;;;21.50;15.67;;;;;;;;;;5495293;26;20452;-82
2024/05/07 08:52:20;;;;;;;19.70;15.38;;;;;;;;;;5495296;27;20274;-81
2024/05/07 08:54:51;;;;;;;18.02;15.00;;;;;;;;;;5494673;27;20001;-82
2024/05/07 08:57:21;;;;;;;17.30;14.43;;;;;;;;;;5495285;26;19997;-82
2024/05/07 08:59:51;;;;;;;14.67;12.83;;;;;;;;;;5495577;26;19998;-82
2024/05/07 09:02:21;;;;;;;17.57;13.63;;;;;;;;;;5495129;27;19993;-82
2024/05/07 09:04:52;;;;;;;19.93;13.83;;;;;;;;;;5494445;26;20018;-83
2024/05/07 09:07:30;;;;;;;16.80;14.40;;;;;;;;;;5495426;26;20009;-83
2024/05/07 09:10:02;;;;;;;17.42;15.00;;;;;;;;;;5493373;26;19997;-82
2024/05/07 09:12:32;;;;;;;18.38;15.52;;;;;;;;;;5495642;26;20001;-83
2024/05/07 09:15:04;;;;;;;19.20;16.97;;;;;;;;;;5494907;26;20006;-82
2024/05/07 09:17:35;;;;;;;18.83;16.77;;;;;;;;;;5494958;26;20013;-82
2024/05/07 09:20:05;;;;;;;22.90;19.70;;;;;;;;;;5494760;26;20080;-80
2024/05/07 09:22:35;;;;;;;20.00;17.43;;;;;;;;;;5494643;26;19998;-82
2024/05/07 09:25:07;;;;;;;21.70;18.37;;;;;;;;;;5494340;26;20324;-82
2024/05/07 09:27:38;;;;;;;19.95;16.13;;;;;;;;;;5495084;26;20006;-82
2024/05/07 09:30:08;;;;;;;20.00;16.93;;;;;;;;;;5495061;26;20083;-82
2024/05/07 09:32:41;;;;;;;19.73;16.87;;;;;;;;;;5487819;27;20009;-82
2024/05/07 09:35:16;;;;;;;21.00;17.17;;;;;;;;;;5494197;27;20447;-83
2024/05/07 09:37:47;;;;;;;19.52;15.35;;;;;;;;;;5494715;26;20013;-83
2024/05/07 09:40:17;;;;;;;19.63;16.13;;;;;;;;;;5494674;26;20009;-83
2024/05/07 09:42:47;;;;;;;19.13;15.20;;;;;;;;;;5494632;26;19997;-84
2024/05/07 09:45:19;;;;;;;17.00;15.17;;;;;;;;;;5493972;26;20434;-83
2024/05/07 09:47:50;;;;;;;17.42;15.07;;;;;;;;;;5494247;26;20042;-82
2024/05/07 09:50:22;;;;;;;18.13;14.83;;;;;;;;;;5494231;26;20022;-82
2024/05/07 09:52:52;;;;;;;17.40;15.30;;;;;;;;;;5477852;27;20009;-83
2024/05/07 09:55:24;;;;;;;18.93;15.47;;;;;;;;;;5492787;27;20457;-83
2024/05/07 09:57:55;;;;;;;19.55;16.08;;;;;;;;;;5494307;26;20008;-82
2024/05/07 10:00:26;;;;;;;19.35;15.52;;;;;;;;;;5493413;27;20006;-83
2024/05/07 10:02:56;;;;;;;16.27;14.13;;;;;;;;;;5492477;26;20017;-82
2024/05/07 10:05:26;;;;;;;20.50;16.07;;;;;;;;;;5492675;26;20420;-82
2024/05/07 10:08:06;;;;;;;18.87;12.90;;;;;;;;;;5492994;26;20391;-82
2024/05/07 10:10:39;;;;;;;15.93;14.07;;;;;;;;;;5518984;21;20001;-83
2024/05/07 10:13:10;;;;;;;16.65;14.02;;;;;;;;;;5532207;26;20001;-83
2024/05/07 10:15:40;;;;;;;19.27;13.57;;;;;;;;;;5531856;26;20070;-84
2024/05/07 10:18:10;;;;;;;15.20;13.33;;;;;;;;;;5512084;26;20072;-83
2024/05/07 10:20:40;;;;;;;13.77;11.27;;;;;;;;;;5497828;26;20002;-83
2024/05/07 10:23:13;;;;;;;13.90;12.23;;;;;;;;;;5498455;26;19993;-84
2024/05/07 10:25:50;;;;;;;13.68;12.18;;;;;;;;;;5499299;26;20002;-83
2024/05/07 10:28:20;;;;;;;18.40;13.32;;;;;;;;;;5499342;26;20057;-82
2024/05/07 10:30:53;;;;;;;12.47;10.13;;;;;;;;;;5489622;27;20379;-83
2024/05/07 10:33:25;;;;;;;15.23;13.15;;;;;;;;;;5480509;27;19998;-83
2024/05/07 10:35:56;;;;;;;12.73;11.13;;;;;;;;;;5499836;27;20053;-82
2024/05/07 10:38:30;;;;;;;17.23;13.18;;;;;;;;;;5498661;26;20055;-83
2024/05/07 10:41:01;;;;;;;14.35;12.82;;;;;;;;;;5498538;26;20348;-82
2024/05/07 10:43:41;;;;;;;16.33;12.82;;;;;;;;;;5482896;27;20002;-82
2024/05/07 10:46:18;;;;;;;15.88;13.55;;;;;;;;;;5498613;27;20083;-82
2024/05/07 10:48:58;;;;;;;15.35;12.30;;;;;;;;;;5499667;26;20017;-83
2024/05/07 10:51:32;;;;;;;14.50;12.27;;;;;;;;;;5486126;27;20012;-83
2024/05/07 10:54:03;;;;;;;19.25;14.82;;;;;;;;;;5499372;27;20002;-83
2024/05/07 10:56:35;;;;;;;15.67;13.27;;;;;;;;;;5495713;27;20068;-83
2024/05/07 10:59:07;;;;;;;16.15;12.98;;;;;;;;;;5499522;26;20006;-83
2024/05/07 11:01:39;;;;;;;16.13;12.40;;;;;;;;;;5499771;27;20012;-83
2024/05/07 11:04:10;;;;;;;15.77;12.40;;;;;;;;;;5499072;26;20347;-83
2024/05/07 11:06:41;;;;;;;19.03;13.97;;;;;;;;;;5512109;26;20001;-83
2024/05/07 11:09:20;;;;;;;16.20;13.55;;;;;;;;;;5497322;26;20347;-82
2024/05/07 11:11:52;;;;;;;13.35;10.68;;;;;;;;;;5499049;27;20320;-82
2024/05/07 11:14:23;;;;;;;13.45;10.73;;;;;;;;;;5498936;27;20375;-82
2024/05/07 11:16:53;;;;;;;15.80;12.43;;;;;;;;;;5497793;26;20014;-82
2024/05/07 11:19:23;;;;;;;14.60;11.43;;;;;;;;;;5481916;27;20021;-82
2024/05/07 11:21:55;;;;;;;13.27;11.40;;;;;;;;;;5498170;26;20004;-82
2024/05/07 11:24:26;;;;;;;15.52;12.90;;;;;;;;;;5468761;27;20005;-83
2024/05/07 11:26:59;;;;;;;15.57;10.83;;;;;;;;;;5475907;26;20008;-83
2024/05/07 11:29:32;;;;;;;12.65;11.20;;;;;;;;;;5498449;27;19997;-83
2024/05/07 11:32:03;;;;;;;15.48;11.07;;;;;;;;;;5481768;27;20006;-82
2024/05/07 11:34:33;;;;;;;11.83;8.77;;;;;;;;;;5497467;27;20105;-83
2024/05/07 11:37:03;;;;;;;13.00;9.80;;;;;;;;;;5498532;26;20009;-82
2024/05/07 11:39:33;;;;;;;11.57;9.43;;;;;;;;;;5497844;27;20071;-82
2024/05/07 11:42:04;;;;;;;13.13;9.20;;;;;;;;;;5497252;27;20010;-84
2024/05/07 11:44:36;;;;;;;13.73;9.60;;;;;;;;;;5496479;26;20013;-84
2024/05/07 11:47:06;;;;;;;13.40;10.25;;;;;;;;;;5498085;26;20017;-83
2024/05/07 11:49:36;;;;;;;13.03;9.67;;;;;;;;;;5497767;26;20067;-84
2024/05/07 11:52:06;;;;;;;14.43;9.87;;;;;;;;;;5498698;27;20001;-85
2024/05/07 11:54:37;;;;;;;10.13;8.27;;;;;;;;;;5498100;26;20005;-83
2024/05/07 11:57:10;;;;;;;11.93;8.77;;;;;;;;;;5489485;26;20006;-83
2024/05/07 11:59:40;;;;;;;10.35;7.60;;;;;;;;;;5480035;27;20004;-83
2024/05/07 12:02:10;;;;;;;13.10;7.33;;;;;;;;;;5497058;27;20406;-81
2024/05/07 12:04:41;;;;;;;9.17;6.87;;;;;;;;;;5497146;26;20316;-83
2024/05/07 12:07:11;;;;;;;10.37;7.63;;;;;;;;;;5481568;26;20021;-83
2024/05/07 12:09:42;;;;;;;10.47;7.23;;;;;;;;;;5498665;26;20053;-83
2024/05/07 12:12:12;;;;;;;9.27;7.30;;;;;;;;;;5487566;27;20005;-83
2024/05/07 12:14:42;;;;;;;9.03;5.23;;;;;;;;;;5497735;26;20013;-84
2024/05/07 12:17:13;;;;;;;10.27;6.70;;;;;;;;;;5497057;26;20451;-84
2024/05/07 12:19:43;;;;;;;9.43;6.77;;;;;;;;;;5497849;26;20002;-83
2024/05/07 12:27:51;;;;;;;8.10;4.53;;;;;;;;;;5497864;26;19998;-83
2024/05/07 12:30:21;;;;;;;6.27;5.00;;;;;;;;;;5497501;26;20053;-84
2024/05/07 12:32:54;;;;;;;6.07;4.60;;;;;;;;;;5497539;26;20024;-84
2024/05/07 12:35:28;;;;;;;7.80;4.30;;;;;;;;;;5497305;27;20001;-84
2024/05/07 12:37:58;;;;;;;5.20;3.80;;;;;;;;;;5497150;26;20439;-83
2024/05/07 12:40:28;;;;;;;6.07;3.80;;;;;;;;;;5497983;27;20017;-84
2024/05/07 12:42:59;;;;;;;7.40;3.53;;;;;;;;;;5466728;27;19990;-83
2024/05/07 12:45:29;;;;;;;4.53;3.23;;;;;;;;;;5495433;27;20006;-84
2024/05/07 12:48:00;;;;;;;6.50;3.47;;;;;;;;;;5497411;26;20479;-84
2024/05/07 12:50:30;;;;;;;6.03;3.40;;;;;;;;;;5497586;27;20005;-83
2024/05/07 12:53:01;;;;;;;6.97;3.67;;;;;;;;;;5490369;27;20055;-83
2024/05/07 12:55:31;;;;;;;4.83;3.47;;;;;;;;;;5496284;27;20001;-84
2024/05/07 12:58:01;;;;;;;5.10;3.20;;;;;;;;;;5498185;26;19997;-84
2024/05/07 13:00:32;;;;;;;5.40;3.60;;;;;;;;;;5498392;27;20297;-84
2024/05/07 13:03:02;;;;;;;5.93;3.60;;;;;;;;;;5497302;27;20004;-83
2024/05/07 13:05:33;;;;;;;4.80;3.30;;;;;;;;;;5496607;27;20016;-84
2024/05/07 13:08:03;;;;;;;3.97;2.90;;;;;;;;;;5497064;26;20010;-83
2024/05/07 13:10:33;;;;;;;5.10;2.50;;;;;;;;;;5497758;27;19997;-84
2024/05/07 13:13:14;;;;;;;5.03;2.50;;;;;;;;;;5497639;27;20025;-84
2024/05/07 13:15:45;;;;;;;4.30;2.55;;;;;;;;;;5483814;27;20006;-84
2024/05/07 13:18:15;;;;;;;3.17;2.43;;;;;;;;;;5497003;26;20005;-85
2024/05/07 13:20:48;;;;;;;2.67;1.93;;;;;;;;;;5497384;26;20017;-83
2024/05/07 13:23:19;;;;;;;3.33;2.30;;;;;;;;;;5496766;26;20009;-84
2024/05/07 13:25:53;;;;;;;2.30;2.10;;;;;;;;;;5523985;26;20076;-83
2024/05/07 13:28:24;;;;;;;1.88;1.70;;;;;;;;;;5499323;26;20008;-84
2024/05/07 13:30:57;;;;;;;3.10;1.77;;;;;;;;;;5497585;26;20006;-84
2024/05/07 13:33:27;;;;;;;3.50;1.85;;;;;;;;;;5496741;27;20005;-84
2024/05/07 13:35:57;;;;;;;2.03;1.77;;;;;;;;;;5467190;27;20001;-84
2024/05/07 13:38:30;;;;;;;2.83;1.60;;;;;;;;;;5467561;27;19994;-84
2024/05/07 13:41:00;;;;;;;2.83;1.70;;;;;;;;;;5497328;27;20021;-84
2024/05/07 13:43:31;;;;;;;1.50;1.40;;;;;;;;;;5496715;27;20004;-84
2024/05/07 13:46:01;;;;;;;3.10;1.43;;;;;;;;;;5466994;27;20006;-84
2024/05/07 13:48:32;;;;;;;1.77;1.67;;;;;;;;;;5466217;27;20001;-85
2024/05/07 13:51:05;;;;;;;1.90;1.57;;;;;;;;;;5498339;27;20304;-85
2024/05/07 13:53:35;;;;;;;3.13;1.75;;;;;;;;;;5497372;27;20033;-85
2024/05/07 13:56:08;;;;;;;3.77;1.50;;;;;;;;;;5499025;27;20067;-84
2024/05/07 13:58:38;;;;;;;1.90;1.42;;;;;;;;;;5501120;26;20037;-84
2024/05/07 14:01:08;;;;;;;6.13;1.47;;;;;;;;;;5500728;27;20072;-84
2024/05/07 14:03:39;;;;;;;2.83;1.37;;;;;;;;;;5499845;27;19996;-84
2024/05/07 14:06:09;;;;;;;3.47;1.80;;;;;;;;;;5470445;27;20013;-85
2024/05/07 14:08:41;;;;;;;1.50;1.37;;;;;;;;;;5499277;26;20040;-85
2024/05/07 14:11:11;;;;;;;3.35;1.70;;;;;;;;;;5469835;27;20430;-84
2024/05/07 14:13:48;;;;;;;2.57;1.63;;;;;;;;;;5501096;27;19993;-85
2024/05/07 14:16:18;;;;;;;2.72;1.92;;;;;;;;;;5501130;27;20012;-85
2024/05/07 14:18:48;;;;;;;2.90;2.10;;;;;;;;;;5501359;26;19994;-84
2024/05/07 14:21:18;;;;;;;1.83;1.73;;;;;;;;;;5500836;27;19996;-84
2024/05/07 14:23:49;;;;;;;3.00;1.70;;;;;;;;;;5500319;27;20072;-84
2024/05/07 14:26:22;;;;;;;3.33;1.87;;;;;;;;;;5501155;27;20001;-84
2024/05/07 14:28:52;;;;;;;3.55;1.80;;;;;;;;;;5500882;26;19994;-84
2024/05/07 14:31:25;;;;;;;3.27;1.77;;;;;;;;;;5470549;27;19998;-84
2024/05/07 14:33:58;;;;;;;1.38;1.27;;;;;;;;;;5499855;27;19993;-85
2024/05/07 14:36:29;;;;;;;4.07;1.95;;;;;;;;;;5500592;27;20464;-84
2024/05/07 14:38:59;;;;;;;2.33;1.73;;;;;;;;;;5501234;26;19994;-84
2024/05/07 14:41:29;;;;;;;3.93;1.60;;;;;;;;;;5501321;27;20004;-84
2024/05/07 14:44:00;;;;;;;2.77;2.07;;;;;;;;;;5501140;27;20001;-85
2024/05/07 14:46:30;;;;;;;1.87;1.70;;;;;;;;;;5501143;27;20001;-84
2024/05/07 14:49:00;;;;;;;3.40;1.77;;;;;;;;;;5501530;26;20009;-84